Time;durP1;ratioP1;P1;durP2;ratioP2;P2;SDS_P1;SDS_P2;PMS_P1;PMS_P2;Temp;Humidity;BMP_temperature;BMP_pressure;BME280_temperature;BME280_humidity;BME280_pressure;Samples;Min_cycle;Max_cycle;Signal;HPM_P1;HPM_P2
2023/08/28 00:02:23;;;;;;;14.00;13.60;;;17.50;97.30;;;;;;5017197;28;20230;-82
2023/08/28 00:04:52;;;;;;;13.83;13.23;;;17.50;99.90;;;;;;5011588;28;20904;-83
2023/08/28 00:07:24;;;;;;;13.53;13.13;;;17.40;99.90;;;;;;5016114;28;20493;-81
2023/08/28 00:09:58;;;;;;;13.90;13.50;;;17.40;99.90;;;;;;5016985;28;20464;-82
2023/08/28 00:12:42;;;;;;;14.00;13.50;;;17.40;99.90;;;;;;5013613;28;20478;-82
2023/08/28 00:15:27;;;;;;;13.57;13.18;;;17.40;99.90;;;;;;5013420;28;20217;-83
2023/08/28 00:18:05;;;;;;;13.82;13.05;;;17.40;99.90;;;;;;5016621;28;20210;-80
2023/08/28 00:20:46;;;;;;;13.33;12.90;;;17.30;99.90;;;;;;5016287;28;20473;-82
2023/08/28 00:23:25;;;;;;;13.77;13.37;;;17.40;1.00;;;;;;5015823;28;20554;-80
2023/08/28 00:26:12;;;;;;;13.63;13.23;;;17.30;1.00;;;;;;5016895;28;21002;-82
2023/08/28 00:28:44;;;;;;;14.07;13.67;;;17.30;1.00;;;;;;5015483;28;21028;-82
2023/08/28 00:31:20;;;;;;;13.90;13.50;;;17.30;1.00;;;;;;5012710;28;21043;-82
2023/08/28 00:34:00;;;;;;;14.40;13.90;;;17.20;99.90;;;;;;5021790;28;20538;-82
2023/08/28 00:36:32;;;;;;;14.77;13.97;;;17.30;99.90;;;;;;5016378;28;21146;-82
2023/08/28 00:39:11;;;;;;;13.70;13.30;;;17.30;99.90;;;;;;5016371;28;20551;-81
2023/08/28 00:41:47;;;;;;;14.03;13.53;;;17.30;99.90;;;;;;5016385;28;20654;-82
2023/08/28 00:44:25;;;;;;;13.90;13.50;;;17.30;55.60;;;;;;5032752;28;20472;-82
2023/08/28 00:46:59;;;;;;;14.83;13.80;;;17.30;99.90;;;;;;5015883;28;20634;-80
2023/08/28 00:49:37;;;;;;;14.10;13.60;;;17.30;8.80;;;;;;5018775;28;20448;-81
2023/08/28 00:52:14;;;;;;;13.83;13.43;;;17.40;1.00;;;;;;5015683;28;20483;-81
2023/08/28 00:54:50;;;;;;;14.03;13.50;;;17.40;99.90;;;;;;5018872;28;20444;-80
2023/08/28 00:57:27;;;;;;;13.67;13.30;;;17.40;1.00;;;;;;5016735;28;20864;-81
2023/08/28 01:00:01;;;;;;;13.97;13.40;;;17.40;1.00;;;;;;5013835;28;20498;-81
2023/08/28 01:02:35;;;;;;;12.82;12.50;;;17.40;1.00;;;;;;5017201;28;20497;-80
2023/08/28 01:05:13;;;;;;;13.23;12.83;;;17.30;1.00;;;;;;5015324;28;20686;-81
2023/08/28 01:07:56;;;;;;;13.33;12.97;;;17.40;1.00;;;;;;5013453;28;20480;-82
2023/08/28 01:10:40;;;;;;;13.10;12.70;;;17.30;1.00;;;;;;5020193;28;20480;-80
2023/08/28 01:13:28;;;;;;;14.60;14.00;;;17.20;1.00;;;;;;5022280;28;21017;-81
2023/08/28 01:16:07;;;;;;;14.13;13.53;;;17.10;99.90;;;;;;5020559;28;20460;-81
2023/08/28 01:18:41;;;;;;;13.30;12.90;;;17.20;99.90;;;;;;5014405;28;20454;-82
2023/08/28 01:21:18;;;;;;;13.53;13.13;;;17.10;99.90;;;;;;5025785;28;20481;-80
2023/08/28 01:24:00;;;;;;;12.90;12.60;;;17.10;99.90;;;;;;5020360;28;20468;-81
2023/08/28 01:26:36;;;;;;;13.17;12.80;;;17.00;36.80;;;;;;5018024;28;20550;-83
2023/08/28 01:29:16;;;;;;;13.00;12.60;;;17.10;14.40;;;;;;5018670;28;20519;-80
2023/08/28 01:31:51;;;;;;;13.10;12.80;;;17.10;99.90;;;;;;5020728;28;20465;-81
2023/08/28 01:34:24;;;;;;;13.67;13.17;;;17.10;1.00;;;;;;5030258;28;20472;-84
2023/08/28 01:37:02;;;;;;;13.30;13.00;;;17.10;1.00;;;;;;5028975;28;20995;-82
2023/08/28 01:39:38;;;;;;;13.10;12.80;;;17.10;1.00;;;;;;5023519;28;20494;-79
2023/08/28 01:42:19;;;;;;;13.53;13.03;;;17.10;99.90;;;;;;5022344;28;20566;-82
2023/08/28 01:45:03;;;;;;;13.77;13.13;;;17.10;99.90;;;;;;5025125;28;20456;-82
2023/08/28 01:47:37;;;;;;;13.03;12.53;;;17.00;99.90;;;;;;5021844;28;20483;-79
2023/08/28 01:50:11;;;;;;;12.97;12.50;;;17.00;99.90;;;;;;5022590;28;20999;-82
2023/08/28 01:52:42;;;;;;;12.90;12.60;;;17.10;99.90;;;;;;5021407;28;20819;-80
2023/08/28 01:55:46;;;;;;;13.40;12.90;;;17.10;99.90;;;;;;5019525;28;20769;-81
2023/08/28 01:58:30;;;;;;;12.40;12.10;;;17.10;99.90;;;;;;5014547;28;20197;-83
2023/08/28 02:01:01;;;;;;;13.40;12.93;;;17.10;99.90;;;;;;5014858;28;20480;-83
2023/08/28 02:03:41;;;;;;;12.87;12.47;;;17.10;99.90;;;;;;5015734;28;20546;-84
2023/08/28 02:06:18;;;;;;;13.50;12.75;;;17.10;99.90;;;;;;5025824;28;20850;-81
2023/08/28 02:08:50;;;;;;;12.83;12.43;;;17.20;1.00;;;;;;5015604;28;20612;-81
2023/08/28 02:11:24;;;;;;;12.87;12.43;;;17.20;1.00;;;;;;5016371;28;20537;-83
2023/08/28 02:13:58;;;;;;;12.60;12.30;;;17.10;99.90;;;;;;5018086;28;20502;-82
2023/08/28 02:16:27;;;;;;;13.57;13.03;;;17.00;99.90;;;;;;5017822;28;20976;-81
2023/08/28 02:19:09;;;;;;;13.02;12.70;;;17.00;1.00;;;;;;5012892;28;20456;-82
2023/08/28 02:21:46;;;;;;;13.60;12.73;;;17.00;1.00;;;;;;5014731;28;20221;-81
2023/08/28 02:24:35;;;;;;;13.00;12.50;;;17.00;1.00;;;;;;5014103;28;20519;-82
2023/08/28 02:27:06;;;;;;;12.90;12.30;;;17.00;99.90;;;;;;5014198;28;20457;-80
2023/08/28 02:29:48;;;;;;;13.30;12.90;;;16.90;99.90;;;;;;5014711;28;20478;-81
2023/08/28 02:32:22;;;;;;;13.02;12.73;;;16.90;99.90;;;;;;5017490;28;20511;-81
2023/08/28 02:34:51;;;;;;;13.70;13.10;;;16.90;51.10;;;;;;5022873;28;20679;-82
2023/08/28 02:37:36;;;;;;;13.50;12.90;;;16.90;99.90;;;;;;5013760;28;20476;-83
2023/08/28 02:40:16;;;;;;;13.27;12.97;;;16.90;1.00;;;;;;5016026;28;20563;-82
2023/08/28 02:42:50;;;;;;;13.20;12.80;;;16.90;99.90;;;;;;5017450;28;20960;-83
2023/08/28 02:45:26;;;;;;;13.20;12.80;;;16.80;99.90;;;;;;5014076;28;20542;-80
2023/08/28 02:48:03;;;;;;;13.97;13.50;;;16.90;99.90;;;;;;5018834;28;20484;-81
2023/08/28 02:50:36;;;;;;;14.27;13.77;;;16.90;54.50;;;;;;5019435;28;20487;-80
2023/08/28 02:53:08;;;;;;;14.32;13.50;;;16.80;1.00;;;;;;5019288;28;20515;-80
2023/08/28 02:55:46;;;;;;;14.03;13.50;;;16.90;99.90;;;;;;5020999;28;20315;-80
2023/08/28 02:58:25;;;;;;;13.13;12.83;;;16.90;1.00;;;;;;5017694;28;20466;-81
2023/08/28 03:01:00;;;;;;;13.07;12.67;;;16.90;99.90;;;;;;5022429;28;20530;-81
2023/08/28 03:03:30;;;;;;;13.75;13.20;;;16.80;99.90;;;;;;5020952;28;20508;-82
2023/08/28 03:06:07;;;;;;;13.47;13.07;;;16.80;99.90;;;;;;5034177;28;20686;-83
2023/08/28 03:08:35;;;;;;;14.07;13.10;;;16.90;1.70;;;;;;5023562;28;20578;-82
2023/08/28 03:11:14;;;;;;;13.53;13.13;;;16.90;1.00;;;;;;5021622;28;20534;-81
2023/08/28 03:13:46;;;;;;;14.07;13.60;;;16.90;1.00;;;;;;5029289;28;20903;-82
2023/08/28 03:16:22;;;;;;;13.50;13.20;;;16.80;99.90;;;;;;5018051;28;21013;-82
2023/08/28 03:18:59;;;;;;;14.13;13.63;;;16.80;99.90;;;;;;5021729;28;20217;-81
2023/08/28 03:21:32;;;;;;;13.50;13.00;;;16.80;99.90;;;;;;5019234;28;20961;-80
2023/08/28 03:24:07;;;;;;;13.82;13.43;;;16.80;99.90;;;;;;5019394;28;20452;-80
2023/08/28 03:26:49;;;;;;;13.43;12.97;;;16.80;99.90;;;;;;5017080;28;20296;-79
2023/08/28 03:29:26;;;;;;;13.50;13.10;;;16.90;51.20;;;;;;5019938;28;21122;-80
2023/08/28 03:32:07;;;;;;;13.63;13.10;;;16.80;99.90;;;;;;5022856;28;20485;-80
2023/08/28 03:34:39;;;;;;;13.53;13.17;;;16.80;99.90;;;;;;5014781;28;20603;-80
2023/08/28 03:37:08;;;;;;;13.40;13.10;;;16.80;99.90;;;;;;5015910;28;20544;-81
2023/08/28 03:39:43;;;;;;;14.73;13.90;;;16.70;99.90;;;;;;5021442;28;20457;-80
2023/08/28 03:42:15;;;;;;;13.35;12.98;;;16.70;99.90;;;;;;5020907;28;20472;-81
2023/08/28 03:44:48;;;;;;;13.77;13.27;;;16.70;99.90;;;;;;5020924;28;20460;-78
2023/08/28 03:47:36;;;;;;;13.27;12.80;;;16.80;1.00;;;;;;5021410;28;20559;-80
2023/08/28 03:50:12;;;;;;;13.53;13.13;;;16.70;1.00;;;;;;5019308;28;20486;-81
2023/08/28 03:52:52;;;;;;;14.37;13.57;;;16.70;1.00;;;;;;5019576;28;20447;-79
2023/08/28 03:55:33;;;;;;;14.00;13.40;;;16.70;99.90;;;;;;5020335;28;20454;-81
2023/08/28 03:58:10;;;;;;;13.50;13.10;;;16.60;1.00;;;;;;5025609;28;20452;-81
2023/08/28 04:00:46;;;;;;;13.75;13.35;;;16.70;99.90;;;;;;5010105;28;20480;-82
2023/08/28 04:03:26;;;;;;;13.63;13.23;;;16.60;99.90;;;;;;5016224;28;20374;-79
2023/08/28 04:05:58;;;;;;;13.80;13.40;;;16.60;1.00;;;;;;5019537;28;20455;-80
2023/08/28 04:08:36;;;;;;;14.73;14.17;;;16.70;1.00;;;;;;5018422;28;20577;-82
2023/08/28 04:11:14;;;;;;;14.60;13.87;;;16.70;1.00;;;;;;5020104;28;20489;-81
2023/08/28 04:13:52;;;;;;;15.73;15.07;;;16.70;99.90;;;;;;5016548;28;21280;-82
2023/08/28 04:16:35;;;;;;;14.90;14.30;;;16.60;99.90;;;;;;5015874;28;20467;-82
2023/08/28 04:19:12;;;;;;;14.97;14.37;;;16.60;99.90;;;;;;5016396;28;20495;-83
2023/08/28 04:22:05;;;;;;;14.47;13.87;;;16.50;1.00;;;;;;5013578;28;20471;-84
2023/08/28 04:24:44;;;;;;;14.23;13.60;;;16.60;1.00;;;;;;5014613;28;20467;-83
2023/08/28 04:27:25;;;;;;;14.50;14.10;;;16.60;99.90;;;;;;5029866;28;20949;-82
2023/08/28 04:30:03;;;;;;;14.57;14.03;;;16.60;99.90;;;;;;5019484;28;20703;-82
2023/08/28 04:32:40;;;;;;;15.00;14.00;;;16.60;84.50;;;;;;5017629;28;20520;-82
2023/08/28 04:35:19;;;;;;;14.10;13.50;;;16.70;52.60;;;;;;5017576;28;20488;-82
2023/08/28 04:38:02;;;;;;;14.53;14.13;;;16.60;99.90;;;;;;5016509;28;20606;-84
2023/08/28 04:40:37;;;;;;;14.77;14.38;;;16.60;99.90;;;;;;5028559;28;20567;-84
2023/08/28 04:43:14;;;;;;;14.98;14.40;;;16.60;99.90;;;;;;5020262;28;20194;-82
2023/08/28 04:45:50;;;;;;;14.93;14.43;;;16.50;1.00;;;;;;5020862;28;20262;-83
2023/08/28 04:48:30;;;;;;;15.93;15.23;;;16.50;99.90;;;;;;5023375;28;20455;-82
2023/08/28 04:51:15;;;;;;;14.77;14.30;;;16.60;99.90;;;;;;5028032;28;20488;-82
2023/08/28 04:53:53;;;;;;;15.63;14.70;;;16.50;1.00;;;;;;5020764;28;20300;-83
2023/08/28 04:56:32;;;;;;;15.20;14.70;;;16.60;1.00;;;;;;5019461;28;20555;-83
2023/08/28 04:59:55;;;;;;;15.33;14.80;;;16.60;62.60;;;;;;5014299;28;20460;-81
2023/08/28 05:02:26;;;;;;;16.07;15.37;;;16.50;99.90;;;;;;5017806;28;20565;-82
2023/08/28 05:05:27;;;;;;;15.40;14.80;;;16.60;99.90;;;;;;5016475;28;20980;-82
2023/08/28 05:08:08;;;;;;;15.63;14.82;;;16.50;99.90;;;;;;5016288;28;20828;-80
2023/08/28 05:10:45;;;;;;;15.70;15.00;;;16.50;1.00;;;;;;5013365;28;20244;-81
2023/08/28 05:13:20;;;;;;;16.00;15.17;;;16.50;99.90;;;;;;5014670;28;20456;-82
2023/08/28 05:16:05;;;;;;;16.00;15.13;;;16.50;99.90;;;;;;5012673;28;20514;-82
2023/08/28 05:18:44;;;;;;;15.03;14.40;;;16.50;88.10;;;;;;5019927;28;20465;-83
2023/08/28 05:21:21;;;;;;;14.50;13.90;;;16.50;99.90;;;;;;5015625;28;20499;-82
2023/08/28 05:24:03;;;;;;;14.80;14.37;;;16.50;99.90;;;;;;5015454;28;20221;-82
2023/08/28 05:26:40;;;;;;;15.50;15.00;;;16.60;99.90;;;;;;5019107;28;20599;-80
2023/08/28 05:29:18;;;;;;;14.77;14.17;;;16.60;99.90;;;;;;5015881;28;20872;-84
2023/08/28 05:32:03;;;;;;;15.20;14.40;;;16.60;99.90;;;;;;5019317;28;20483;-84
2023/08/28 05:34:47;;;;;;;14.57;14.10;;;16.60;99.90;;;;;;5021346;28;20977;-86
2023/08/28 05:37:27;;;;;;;14.80;14.23;;;16.50;99.90;;;;;;5019836;28;20464;-86
2023/08/28 05:40:16;;;;;;;15.07;14.47;;;16.50;1.00;;;;;;5018144;28;20468;-85
2023/08/28 05:42:48;;;;;;;15.00;14.60;;;16.50;47.50;;;;;;5020271;28;20493;-85
2023/08/28 05:48:17;;;;;;;15.00;14.60;;;16.60;99.90;;;;;;5022321;28;20468;-86
2023/08/28 05:51:10;;;;;;;15.77;15.10;;;16.60;61.10;;;;;;5015047;28;20484;-91
2023/08/28 05:53:43;;;;;;;15.30;14.70;;;16.50;99.90;;;;;;5019747;28;21300;-86
2023/08/28 05:56:30;;;;;;;15.50;14.98;;;16.60;99.90;;;;;;5018528;28;20472;-86
2023/08/28 05:59:14;;;;;;;15.93;15.17;;;16.60;57.60;;;;;;5018793;28;20460;-87
2023/08/28 06:02:13;;;;;;;15.07;14.50;;;16.60;1.00;;;;;;5016720;28;20857;-86
2023/08/28 06:05:09;;;;;;;15.00;14.60;;;16.50;1.00;;;;;;5020287;28;20450;-86
2023/08/28 06:07:55;;;;;;;16.30;15.40;;;16.50;99.90;;;;;;5018205;28;20455;-87
2023/08/28 06:10:45;;;;;;;15.30;14.63;;;16.60;99.90;;;;;;5017655;28;21010;-86
2023/08/28 06:13:35;;;;;;;15.50;14.90;;;16.60;99.90;;;;;;5017623;28;20488;-86
2023/08/28 06:16:26;;;;;;;15.67;15.07;;;16.60;1.00;;;;;;5019229;28;20193;-86
2023/08/28 06:19:18;;;;;;;16.10;15.50;;;16.60;1.00;;;;;;5011713;28;20452;-77
2023/08/28 06:22:03;;;;;;;15.53;15.03;;;16.60;99.90;;;;;;5006663;28;20480;-76
2023/08/28 06:24:39;;;;;;;15.80;15.10;;;16.50;99.90;;;;;;5007079;28;20460;-77
2023/08/28 06:27:28;;;;;;;15.93;15.20;;;16.50;99.90;;;;;;5007502;28;20459;-76
2023/08/28 06:30:05;;;;;;;15.90;15.30;;;16.40;99.90;;;;;;5006113;28;20474;-76
2023/08/28 06:32:45;;;;;;;16.10;15.40;;;16.40;1.00;;;;;;5003016;28;20982;-76
2023/08/28 06:35:18;;;;;;;15.82;14.90;;;16.40;99.90;;;;;;5003448;28;20459;-78
2023/08/28 06:37:52;;;;;;;16.00;15.33;;;16.40;1.00;;;;;;5008363;28;20197;-76
2023/08/28 06:40:22;;;;;;;15.90;15.30;;;16.50;1.00;;;;;;4994185;28;20499;-77
2023/08/28 06:42:53;;;;;;;16.47;15.77;;;16.40;99.90;;;;;;5003737;28;21008;-76
2023/08/28 06:45:25;;;;;;;15.80;15.17;;;16.60;99.90;;;;;;5008528;28;20462;-76
2023/08/28 06:47:57;;;;;;;16.10;15.50;;;16.70;1.00;;;;;;5007881;28;20529;-77
2023/08/28 06:50:26;;;;;;;15.90;15.30;;;16.70;99.90;;;;;;5014461;28;20480;-74
2023/08/28 06:53:00;;;;;;;15.70;14.90;;;16.70;1.00;;;;;;5012979;28;20464;-74
2023/08/28 06:55:34;;;;;;;15.43;14.93;;;16.70;99.90;;;;;;5015160;28;20513;-76
2023/08/28 06:58:10;;;;;;;15.87;15.17;;;16.70;30.70;;;;;;5008708;28;20451;-76
2023/08/28 07:00:42;;;;;;;15.90;15.20;;;16.70;1.00;;;;;;5008612;28;20483;-81
2023/08/28 07:03:15;;;;;;;15.53;15.00;;;16.70;99.90;;;;;;5016430;28;20875;-80
2023/08/28 07:05:46;;;;;;;16.40;15.80;;;16.80;1.00;;;;;;5018595;28;20553;-80
2023/08/28 07:08:38;;;;;;;16.10;15.50;;;16.80;1.00;;;;;;5018475;28;20517;-83
2023/08/28 07:11:13;;;;;;;15.80;15.20;;;16.80;99.90;;;;;;5018759;28;20830;-81
2023/08/28 07:13:55;;;;;;;15.83;15.23;;;16.80;99.90;;;;;;5019687;28;20525;-84
2023/08/28 07:16:37;;;;;;;16.37;15.83;;;16.90;1.00;;;;;;5018648;28;20467;-81
2023/08/28 07:19:14;;;;;;;15.73;15.23;;;16.90;1.00;;;;;;5022410;28;20459;-80
2023/08/28 07:21:54;;;;;;;16.20;15.60;;;16.90;99.90;;;;;;5018101;28;21138;-82
2023/08/28 07:24:45;;;;;;;16.38;15.77;;;16.90;65.40;;;;;;5019612;28;20465;-80
2023/08/28 07:27:28;;;;;;;16.17;15.67;;;17.00;99.90;;;;;;5019032;28;20308;-82
2023/08/28 07:30:04;;;;;;;16.03;15.43;;;17.00;11.30;;;;;;5018844;28;21017;-81
2023/08/28 07:32:52;;;;;;;16.70;15.93;;;16.90;75.30;;;;;;5015435;28;20915;-82
2023/08/28 07:35:35;;;;;;;16.80;16.13;;;17.00;1.00;;;;;;5015229;28;20510;-82
2023/08/28 07:38:21;;;;;;;16.97;16.27;;;17.00;1.00;;;;;;5024130;28;20525;-80
2023/08/28 07:41:01;;;;;;;17.13;16.33;;;17.00;1.00;;;;;;5015137;28;20484;-81
2023/08/28 07:43:34;;;;;;;17.50;16.50;;;17.00;99.90;;;;;;5017226;28;21029;-82
2023/08/28 07:46:20;;;;;;;17.93;17.03;;;17.00;99.90;;;;;;5011132;28;20956;-83
2023/08/28 07:49:07;;;;;;;16.00;15.40;;;17.00;82.60;;;;;;5013710;28;20450;-85
2023/08/28 07:52:07;;;;;;;16.50;15.90;;;17.10;1.00;;;;;;5015422;28;20498;-86
2023/08/28 07:55:00;;;;;;;16.90;16.30;;;17.10;99.90;;;;;;5024687;28;20455;-86
2023/08/28 07:57:44;;;;;;;17.57;16.60;;;17.10;1.00;;;;;;5016726;28;20548;-85
2023/08/28 08:00:21;;;;;;;16.73;16.10;;;17.10;99.90;;;;;;5020041;28;20486;-85
2023/08/28 08:03:09;;;;;;;20.35;18.95;;;17.20;99.90;;;;;;5019141;28;20961;-85
2023/08/28 08:05:47;;;;;;;22.17;20.50;;;17.20;99.90;;;;;;5019393;28;20222;-86
2023/08/28 08:08:28;;;;;;;18.10;17.10;;;17.20;99.90;;;;;;5016782;28;20981;-85
2023/08/28 08:11:11;;;;;;;17.63;16.70;;;17.20;99.90;;;;;;5023871;28;20472;-86
2023/08/28 08:13:50;;;;;;;16.50;16.00;;;17.20;99.90;;;;;;5018374;28;20202;-85
2023/08/28 08:16:24;;;;;;;16.73;15.93;;;17.30;1.00;;;;;;5023020;28;20475;-86
2023/08/28 08:19:07;;;;;;;15.57;15.07;;;17.20;99.90;;;;;;5022149;28;21154;-85
2023/08/28 08:21:45;;;;;;;15.50;15.00;;;17.30;99.90;;;;;;5018048;28;20572;-85
2023/08/28 08:24:22;;;;;;;15.77;15.17;;;17.30;1.00;;;;;;5018849;28;20449;-85
2023/08/28 08:27:00;;;;;;;16.30;15.60;;;17.30;1.00;;;;;;5017775;28;20529;-85
2023/08/28 08:29:44;;;;;;;16.80;16.00;;;17.30;99.90;;;;;;5018279;28;20482;-85
2023/08/28 08:32:57;;;;;;;15.68;15.00;;;17.40;99.90;;;;;;5013719;28;20527;-86
2023/08/28 08:39:12;;;;;;;16.10;15.20;;;17.40;99.90;;;;;;5019596;28;20460;-86
2023/08/28 09:04:14;;;;;;;15.73;15.17;;;17.50;36.60;;;;;;4982029;28;20422;-86
2023/08/28 09:06:54;;;;;;;16.73;16.03;;;17.50;1.00;;;;;;4963984;28;20447;-86
2023/08/28 09:09:28;;;;;;;16.05;15.27;;;17.50;1.00;;;;;;4980951;28;21146;-86
2023/08/28 09:12:16;;;;;;;16.37;15.87;;;17.60;99.90;;;;;;5030563;28;20233;-85
2023/08/28 09:14:47;;;;;;;15.90;15.40;;;17.60;99.90;;;;;;5041773;28;20549;-85
2023/08/28 09:17:28;;;;;;;15.97;15.37;;;17.60;96.50;;;;;;5041095;28;20447;-85
2023/08/28 09:20:21;;;;;;;16.63;15.93;;;17.70;1.00;;;;;;5043260;28;20534;-86
2023/08/28 09:23:03;;;;;;;16.17;15.60;;;17.70;99.90;;;;;;5037419;28;20522;-86
2023/08/28 09:26:24;;;;;;;15.90;15.40;;;17.70;1.00;;;;;;4970938;28;21806;-86
2023/08/28 09:50:13;;;;;;;15.83;15.23;;;17.80;1.00;;;;;;4977290;28;21267;-86
2023/08/28 09:52:45;;;;;;;15.80;15.30;;;17.80;1.00;;;;;;4958283;28;20486;-85
2023/08/28 09:55:29;;;;;;;15.90;15.40;;;17.90;1.00;;;;;;4987685;28;20556;-85
2023/08/28 09:58:12;;;;;;;15.80;15.23;;;17.90;1.00;;;;;;5020978;28;20456;-88
2023/08/28 10:00:51;;;;;;;15.53;15.03;;;17.90;99.90;;;;;;5021683;28;20484;-86
2023/08/28 10:03:32;;;;;;;15.43;14.67;;;17.90;99.90;;;;;;5020867;28;20460;-86
2023/08/28 10:06:12;;;;;;;15.20;14.80;;;18.00;99.90;;;;;;5025022;28;20455;-86
2023/08/28 10:08:56;;;;;;;14.80;14.40;;;18.00;99.90;;;;;;5022751;28;20452;-88
2023/08/28 10:11:38;;;;;;;15.00;14.50;;;18.10;99.90;;;;;;5022508;28;20575;-86
2023/08/28 10:14:22;;;;;;;14.20;13.80;;;18.20;99.90;;;;;;5037902;28;20881;-86
2023/08/28 10:17:04;;;;;;;14.03;13.63;;;18.20;99.90;;;;;;5021693;28;21082;-86
2023/08/28 10:20:05;;;;;;;14.40;14.00;;;18.30;99.90;;;;;;5022506;28;21319;-85
2023/08/28 10:22:57;;;;;;;14.87;14.37;;;18.20;99.90;;;;;;5024559;28;20486;-85
2023/08/28 10:25:44;;;;;;;14.80;14.40;;;18.20;64.90;;;;;;5023845;28;20468;-86
2023/08/28 10:28:21;;;;;;;14.98;14.48;;;18.20;5.10;;;;;;5022816;28;20480;-87
2023/08/28 10:30:58;;;;;;;14.70;14.30;;;18.20;1.00;;;;;;5019603;28;20224;-85
2023/08/28 10:33:45;;;;;;;14.53;14.03;;;18.30;6.30;;;;;;5020647;28;20496;-86
2023/08/28 10:36:26;;;;;;;14.60;14.20;;;18.30;1.00;;;;;;5036895;28;20479;-86
2023/08/28 10:39:08;;;;;;;15.97;15.10;;;18.40;36.60;;;;;;5018712;28;20449;-85
2023/08/28 10:42:01;;;;;;;15.13;14.73;;;18.60;31.90;;;;;;5021501;28;20540;-87
2023/08/28 10:44:54;;;;;;;15.27;14.77;;;18.70;1.00;;;;;;5020498;28;20460;-87
2023/08/28 10:47:42;;;;;;;14.97;14.57;;;18.70;1.00;;;;;;5018335;28;20457;-86
2023/08/28 10:50:34;;;;;;;15.10;14.70;;;18.70;1.00;;;;;;5018032;28;20465;-86
2023/08/28 10:53:20;;;;;;;15.15;14.73;;;18.70;1.00;;;;;;5020037;28;20509;-86
2023/08/28 10:56:10;;;;;;;15.10;14.60;;;18.80;1.00;;;;;;5038532;28;20214;-86
2023/08/28 10:58:51;;;;;;;14.87;14.47;;;18.90;1.00;;;;;;5021909;28;20460;-86
2023/08/28 11:29:04;;;;;;;15.02;14.35;;;18.80;1.00;;;;;;4779591;29;20447;-86
2023/08/28 11:32:24;;;;;;;14.50;14.00;;;18.80;1.00;;;;;;4832842;29;20228;-85
2023/08/28 11:35:36;;;;;;;13.83;13.43;;;18.90;1.00;;;;;;4868377;29;20492;-86
2023/08/28 12:03:09;;;;;;;14.73;14.33;;;18.80;1.00;;;;;;4921496;23;20931;-86
2023/08/28 12:06:03;;;;;;;;;;;;;;;;;;;;;
2023/08/28 12:08:54;;;;;;;14.77;14.27;;;18.80;1.00;;;;;;4886043;29;20533;-83
2023/08/28 12:11:40;;;;;;;14.32;13.90;;;18.70;1.00;;;;;;4883160;29;20292;-82
2023/08/28 12:14:25;;;;;;;14.77;14.27;;;18.70;1.00;;;;;;4885470;29;20211;-83
2023/08/28 12:17:23;;;;;;;15.33;14.83;;;18.80;1.00;;;;;;4887541;29;20510;-82
2023/08/28 12:20:19;;;;;;;15.50;14.90;;;18.80;1.00;;;;;;4887203;29;20465;-82
2023/08/28 12:23:00;;;;;;;15.23;14.57;;;18.80;1.00;;;;;;4884221;29;21405;-81
2023/08/28 12:25:56;;;;;;;15.37;14.87;;;18.70;1.00;;;;;;4885691;29;20454;-82
2023/08/28 12:28:35;;;;;;;16.23;15.47;;;18.60;1.00;;;;;;4876551;29;20471;-82
2023/08/28 12:31:30;;;;;;;15.33;14.53;;;18.70;1.00;;;;;;4884737;29;20493;-82
2023/08/28 12:34:14;;;;;;;15.33;14.63;;;18.80;1.00;;;;;;4887853;29;20483;-82
2023/08/28 12:37:13;;;;;;;14.80;14.30;;;18.90;1.00;;;;;;4886490;29;21036;-82
2023/08/28 12:40:00;;;;;;;15.00;14.50;;;18.90;1.00;;;;;;4887342;29;20464;-82
2023/08/28 12:42:46;;;;;;;14.97;14.57;;;19.00;1.00;;;;;;4886515;29;20510;-83
2023/08/28 12:45:42;;;;;;;14.90;14.50;;;19.00;1.00;;;;;;4888312;29;20463;-83
2023/08/28 12:48:20;;;;;;;15.17;14.67;;;18.90;1.00;;;;;;4897907;29;20459;-82
2023/08/28 12:51:12;;;;;;;15.00;14.50;;;18.80;1.00;;;;;;4886524;29;20497;-81
2023/08/28 12:54:08;;;;;;;14.53;14.13;;;18.90;1.00;;;;;;4882894;29;20663;-82
2023/08/28 12:57:46;;;;;;;14.40;14.00;;;18.80;1.00;;;;;;4889460;29;20516;-81
2023/08/28 13:00:29;;;;;;;14.40;13.90;;;18.70;1.00;;;;;;4880314;29;20459;-82
2023/08/28 13:03:13;;;;;;;14.00;13.70;;;18.70;1.00;;;;;;4884036;29;20471;-82
2023/08/28 13:05:50;;;;;;;14.77;14.20;;;18.70;1.00;;;;;;4884880;29;20505;-82
2023/08/28 13:08:43;;;;;;;14.17;13.77;;;18.70;1.00;;;;;;4876510;29;20511;-82
2023/08/28 13:11:24;;;;;;;14.60;14.00;;;18.70;1.00;;;;;;4881278;29;20499;-83
2023/08/28 13:14:32;;;;;;;14.40;14.00;;;18.70;1.00;;;;;;4882902;29;20466;-84
2023/08/28 13:17:14;;;;;;;15.03;14.53;;;18.60;1.00;;;;;;4881841;29;20523;-83
2023/08/28 13:19:59;;;;;;;14.93;14.43;;;18.70;1.00;;;;;;4896220;29;20543;-84
2023/08/28 13:22:33;;;;;;;15.20;14.60;;;18.60;1.00;;;;;;4884849;29;20521;-82
2023/08/28 13:25:11;;;;;;;15.00;14.33;;;18.60;1.00;;;;;;4885635;29;20211;-83
2023/08/28 13:27:54;;;;;;;14.53;14.13;;;18.60;1.00;;;;;;4884748;29;21150;-81
2023/08/28 13:30:29;;;;;;;14.70;14.10;;;18.60;1.00;;;;;;4877779;29;20904;-83
2023/08/28 13:33:12;;;;;;;14.23;13.83;;;18.60;1.00;;;;;;4883459;29;20475;-83
2023/08/28 13:35:53;;;;;;;14.70;14.20;;;18.60;1.00;;;;;;4884426;29;20462;-84
2023/08/28 13:38:40;;;;;;;14.47;14.07;;;18.60;1.00;;;;;;4885492;29;20474;-83
2023/08/28 13:41:18;;;;;;;14.60;14.30;;;18.60;1.00;;;;;;4901521;29;20547;-83
2023/08/28 13:44:12;;;;;;;15.05;14.52;;;18.50;1.00;;;;;;4884665;29;20203;-83
2023/08/28 13:46:52;;;;;;;14.73;14.33;;;18.50;1.00;;;;;;4880752;29;20251;-84
2023/08/28 13:49:32;;;;;;;15.20;14.80;;;18.60;1.00;;;;;;4884670;29;20583;-84
2023/08/28 13:52:15;;;;;;;14.77;14.37;;;18.60;1.00;;;;;;4880983;29;20483;-84
2023/08/28 13:55:10;;;;;;;15.20;14.70;;;18.60;1.00;;;;;;4882434;29;20483;-83
2023/08/28 13:57:54;;;;;;;15.77;14.83;;;18.60;1.00;;;;;;4885019;29;20451;-83
2023/08/28 14:00:47;;;;;;;14.50;14.10;;;18.60;1.00;;;;;;4884744;29;20454;-83
2023/08/28 14:03:28;;;;;;;14.60;14.20;;;18.50;1.00;;;;;;4883444;29;20459;-85
2023/08/28 14:06:13;;;;;;;14.93;14.47;;;18.50;1.00;;;;;;4890057;29;20971;-86
2023/08/28 14:09:28;;;;;;;14.80;14.30;;;18.40;1.00;;;;;;4890722;29;20452;-86
2023/08/28 14:12:49;;;;;;;14.40;14.00;;;18.50;1.00;;;;;;4887499;29;21229;-86
2023/08/28 14:15:27;;;;;;;14.97;14.40;;;18.40;1.00;;;;;;4892360;29;20506;-86
2023/08/28 14:23:06;;;;;;;14.80;14.40;;;18.40;99.90;;;;;;4828974;29;20496;-86
2023/08/28 14:25:48;;;;;;;14.43;13.93;;;18.40;99.90;;;;;;4829680;29;20481;-87
2023/08/28 14:36:53;;;;;;;14.33;13.93;;;18.40;99.90;;;;;;4828464;29;20476;-86
2023/08/28 14:39:53;;;;;;;14.50;14.00;;;18.30;99.90;;;;;;4834577;29;20665;-87
2023/08/28 14:42:27;;;;;;;14.60;14.20;;;18.30;99.90;;;;;;4820910;29;20968;-87
2023/08/28 14:45:05;;;;;;;14.00;13.60;;;18.30;99.90;;;;;;4828229;29;20985;-87
2023/08/28 14:47:58;;;;;;;14.17;13.77;;;18.30;99.90;;;;;;4815661;29;20573;-87
2023/08/28 14:50:35;;;;;;;13.88;13.48;;;18.30;99.90;;;;;;4827290;29;20492;-87
2023/08/28 14:53:09;;;;;;;14.25;13.70;;;18.30;99.90;;;;;;4824871;29;20204;-88
2023/08/28 14:55:45;;;;;;;14.40;14.00;;;18.30;99.90;;;;;;4828044;29;20213;-88
2023/08/28 14:58:25;;;;;;;14.70;14.30;;;18.40;99.90;;;;;;4829167;29;20477;-85
2023/08/28 15:00:56;;;;;;;14.73;14.30;;;18.30;99.90;;;;;;4882481;29;20486;-85
2023/08/28 15:03:35;;;;;;;14.25;13.93;;;18.30;99.90;;;;;;4887701;29;20457;-85
2023/08/28 15:06:20;;;;;;;14.40;14.10;;;18.30;99.90;;;;;;4885238;29;20200;-86
2023/08/28 15:08:55;;;;;;;15.47;14.40;;;18.30;99.90;;;;;;4891673;29;20498;-85
2023/08/28 15:11:33;;;;;;;14.40;14.10;;;18.30;99.90;;;;;;4884122;29;20483;-86
2023/08/28 15:14:10;;;;;;;14.40;14.00;;;18.30;99.90;;;;;;4884311;29;20482;-85
2023/08/28 15:16:50;;;;;;;14.50;14.10;;;18.20;99.90;;;;;;4884285;29;20463;-86
2023/08/28 15:19:30;;;;;;;14.30;14.00;;;18.20;99.90;;;;;;4901423;29;20523;-86
2023/08/28 15:22:02;;;;;;;14.75;14.23;;;18.20;99.90;;;;;;4885701;29;20481;-85
2023/08/28 15:24:49;;;;;;;14.67;14.23;;;18.20;99.90;;;;;;4886621;29;20414;-86
2023/08/28 15:27:30;;;;;;;14.87;14.47;;;18.20;99.90;;;;;;4886713;29;20458;-86
2023/08/28 15:30:22;;;;;;;14.60;14.23;;;18.20;99.90;;;;;;4891001;29;20828;-87
2023/08/28 15:32:50;;;;;;;14.30;14.00;;;18.10;99.90;;;;;;4887753;29;20525;-85
2023/08/28 15:35:40;;;;;;;14.10;13.80;;;18.20;99.90;;;;;;4884108;29;21015;-86
2023/08/28 15:38:11;;;;;;;14.07;13.73;;;18.10;99.90;;;;;;4888045;29;20474;-87
2023/08/28 15:40:43;;;;;;;14.50;14.10;;;18.10;99.90;;;;;;4884669;29;20483;-85
2023/08/28 15:43:20;;;;;;;14.20;13.90;;;18.10;99.90;;;;;;4884980;29;20464;-86